Mist van: 20-11-2019 18:00 tot: 21-11-2019 00:00 waarschuwing voor: Mist niveau: Geel info button

METAR rapporten vliegvelden

   
EHVK - Volkel Rnlafb, Netherlands
Afstand tot: ZW 18 km
Gewijzigd: 20-11-2019 19:25
Nevel, Helder  
Nevel, Helder  
   Wind: ONO 13 km/h
Wind: ONO 13 km/h
Temperatuur: 0°C
Voelt als: -4°C
Dauwpunt: 0°C
Vochtigheid: 100%
Barometer: 1015 hPa
Bewolking: Helder
Zicht: 2 km
Bewolking: Helder
EHVK 201825Z AUTO 07007KT 2100 BR NCD 00/00 Q1015 YLO RMK CB INFO NOT AVBL
EDLV - Niederrhein, Germany
Afstand tot: ZO 25 km
Gewijzigd: 20-11-2019 19:20
Nevel, Gedeeltelijk bewolkt  
Nevel, Gedeeltelijk bewolkt  
   Wind: varieert 5.6 km/h
Wind: varieert 5.6 km/h
Temperatuur: 2°C
Voelt als: 1°C
Dauwpunt: 2°C
Vochtigheid: 100%
Barometer: 1015 hPa
Bewolking: Gedeeltelijk bewolkt
Zicht: 4 km
Bewolking: Gedeeltelijk bewolkt
EDLV 201820Z VRB03KT 4000 BR NSC 02/02 Q1015
EHDL - Deelen Rnlafb, Netherlands
Afstand tot: N 35 km
Gewijzigd: 20-11-2019 19:25
Nevel, Bewolking  
Nevel, Bewolking  
   Wind: Oosten 9.3 km/h
Wind: Oosten 9.3 km/h
Temperatuur: 2°C
Voelt als: -1°C
Dauwpunt: 2°C
Vochtigheid: 100%
Barometer: 1015 hPa
Bewolking: Bewolking
Zicht: 3 km
Bewolking: Bewolking 300 ft
EHDL 201825Z AUTO 08005KT 010V150 2600 BR OVC003/// 02/02 Q1015 YLO
EHEH - Eindhoven Rnlafb, Netherlands
Afstand tot: ZW 48 km
Gewijzigd: 20-11-2019 19:25
Nevel, Bewolking  
Nevel, Bewolking  
   Wind: Oosten 11.1 km/h
Wind: Oosten 11.1 km/h
Temperatuur: 2°C
Voelt als: -1°C
Dauwpunt: 2°C
Vochtigheid: 100%
Barometer: 1015 hPa
Bewolking: Bewolking
Zicht: 2 km
Bewolking: Grotendeels bewolkt 300 ft,
Bewolking 500 ft
EHEH 201825Z AUTO 08006KT 060V120 2400 R03/2300N BR BKN003/// OVC005/// 02/02 Q1015 YLO 07007KT 3000 BR BKN005 BKN007 TEMPO 2000 BR FEW003 BKN004
EHGR - Gilze-Rijen Rnla, Netherlands
Afstand tot: WZW 70 km
Gewijzigd: 20-11-2019 19:25
Nevel, Bewolking  
Nevel, Bewolking  
   Wind: Oosten 13 km/h
Wind: Oosten 13 km/h
Temperatuur: 2°C
Voelt als: -2°C
Dauwpunt: 2°C
Vochtigheid: 100%
Barometer: 1014 hPa
Bewolking: Bewolking
Zicht: 3 km
Bewolking: Bewolking 500 ft
EHGR 201825Z AUTO 09007KT 050V120 2600 R10/2300N BR OVC005/// 02/02 Q1014 YLO 10008KT 5000 BR TEMPO 2500 BR MIFG SCT004 BKN006
EBBL - Kleine-Brogel(Ba, Belgium
Afstand tot: ZZW 71 km
Gewijzigd: 20-11-2019 19:13
Gedeeltelijk bewolkt  
Gedeeltelijk bewolkt  
   Wind: ONO 11.1 km/h
Wind: ONO 11.1 km/h
Temperatuur: 2°C
Voelt als: -1°C
Dauwpunt: 2°C
Vochtigheid: 100%
Barometer: 1014 hPa
Bewolking: Gedeeltelijk bewolkt
Zicht: 5 km
Bewolking: Gedeeltelijk bewolkt 2200 ft
EBBL 201813Z AUTO 07006KT 4900 SCT022/// 02/02 Q1014 GRN

Script ontwikkeld door  Saratoga-weather.org Aangepast voor de template door  Weerstation Leuven

U vindt ons ook hier:

Het Weer Aktueel

European Weather Network

WeatherCloud

Weather Underground

Benelux Weer Netwerk

Apparatuur in gebruik:

Weerstation
Davis VP2

Weerprogramma
consoleWD

Weercomputer
Raspberry

Webleverancier
Stef van Bakel koeltechniek

Davis VP2

consoleWD

Raspberry

Stef van Bakel koeltechniek